sensor_id;sensor_type;location;lat;lon;timestamp;pressure;altitude;pressure_sealevel;temperature;humidity
44839;BME280;30576;42.098;24.876;2023-08-31T00:01:46;98837.84;;;24.71;42.38
44839;BME280;30576;42.098;24.876;2023-08-31T00:04:13;98874.84;;;24.90;42.74
44839;BME280;30576;42.098;24.876;2023-08-31T00:06:43;98873.97;;;24.79;42.74
44839;BME280;30576;42.098;24.876;2023-08-31T00:09:11;98854.34;;;24.77;42.42
44839;BME280;30576;42.098;24.876;2023-08-31T00:11:36;98860.22;;;24.82;41.68
44839;BME280;30576;42.098;24.876;2023-08-31T00:14:02;98864.97;;;25.00;41.76
44839;BME280;30576;42.098;24.876;2023-08-31T00:16:29;98868.34;;;24.92;41.49
44839;BME280;30576;42.098;24.876;2023-08-31T00:18:56;98892.16;;;25.18;41.42
44839;BME280;30576;42.098;24.876;2023-08-31T00:21:22;98866.00;;;25.09;41.58
44839;BME280;30576;42.098;24.876;2023-08-31T00:23:48;98864.72;;;25.13;41.21
44839;BME280;30576;42.098;24.876;2023-08-31T00:26:14;98851.03;;;24.95;41.38
44839;BME280;30576;42.098;24.876;2023-08-31T00:28:40;98878.41;;;25.21;41.38
44839;BME280;30576;42.098;24.876;2023-08-31T00:31:08;98878.88;;;25.05;41.72
44839;BME280;30576;42.098;24.876;2023-08-31T00:33:34;98864.38;;;24.96;41.47
44839;BME280;30576;42.098;24.876;2023-08-31T00:36:02;98840.72;;;24.79;41.42
44839;BME280;30576;42.098;24.876;2023-08-31T00:38:29;98880.09;;;24.91;41.73
44839;BME280;30576;42.098;24.876;2023-08-31T00:40:55;98891.28;;;24.87;41.85
44839;BME280;30576;42.098;24.876;2023-08-31T00:43:20;98877.09;;;24.84;41.89
44839;BME280;30576;42.098;24.876;2023-08-31T00:45:48;98902.28;;;24.95;41.99
44839;BME280;30576;42.098;24.876;2023-08-31T00:48:15;98903.31;;;25.03;41.93
44839;BME280;30576;42.098;24.876;2023-08-31T00:50:47;98881.78;;;24.82;42.08
44839;BME280;30576;42.098;24.876;2023-08-31T00:53:14;98890.59;;;24.84;42.00
44839;BME280;30576;42.098;24.876;2023-08-31T00:55:40;98915.38;;;24.78;42.23
44839;BME280;30576;42.098;24.876;2023-08-31T00:58:07;98869.03;;;24.63;41.99
44839;BME280;30576;42.098;24.876;2023-08-31T01:05:58;98931.91;;;25.16;41.55
44839;BME280;30576;42.098;24.876;2023-08-31T01:14:12;98888.41;;;24.78;41.53
44839;BME280;30576;42.098;24.876;2023-08-31T01:16:42;98933.91;;;24.93;41.97
44839;BME280;30576;42.098;24.876;2023-08-31T01:22:00;98923.72;;;24.96;42.12
44839;BME280;30576;42.098;24.876;2023-08-31T01:24:30;98908.66;;;24.73;41.74
44839;BME280;30576;42.098;24.876;2023-08-31T01:26:56;98935.91;;;24.91;41.62
44839;BME280;30576;42.098;24.876;2023-08-31T01:29:22;98907.97;;;24.71;41.53
44839;BME280;30576;42.098;24.876;2023-08-31T01:31:48;98929.78;;;24.89;41.42
44839;BME280;30576;42.098;24.876;2023-08-31T01:34:33;98969.16;;;25.22;41.33
44839;BME280;30576;42.098;24.876;2023-08-31T01:37:05;98933.34;;;24.89;41.72
44839;BME280;30576;42.098;24.876;2023-08-31T01:39:37;98920.06;;;24.76;41.57
44839;BME280;30576;42.098;24.876;2023-08-31T01:42:10;98956.38;;;24.93;42.15
44839;BME280;30576;42.098;24.876;2023-08-31T01:44:39;98966.94;;;25.06;42.71
44839;BME280;30576;42.098;24.876;2023-08-31T01:47:06;98924.97;;;24.71;42.70
44839;BME280;30576;42.098;24.876;2023-08-31T01:49:38;98944.88;;;24.70;43.35
44839;BME280;30576;42.098;24.876;2023-08-31T01:52:04;98953.09;;;24.36;44.74
44839;BME280;30576;42.098;24.876;2023-08-31T01:54:29;98949.69;;;24.23;45.98
44839;BME280;30576;42.098;24.876;2023-08-31T01:56:55;98951.69;;;24.09;47.06
44839;BME280;30576;42.098;24.876;2023-08-31T02:02:42;98954.69;;;23.95;47.78
44839;BME280;30576;42.098;24.876;2023-08-31T02:05:08;98933.03;;;23.85;48.27
44839;BME280;30576;42.098;24.876;2023-08-31T02:07:34;98961.91;;;23.94;48.79
44839;BME280;30576;42.098;24.876;2023-08-31T02:09:59;98966.81;;;23.89;48.75
44839;BME280;30576;42.098;24.876;2023-08-31T02:12:25;98967.81;;;23.88;48.61
44839;BME280;30576;42.098;24.876;2023-08-31T02:14:50;98950.78;;;23.54;49.48
44839;BME280;30576;42.098;24.876;2023-08-31T02:17:16;98955.56;;;23.62;49.58
44839;BME280;30576;42.098;24.876;2023-08-31T02:19:42;98946.41;;;23.41;49.71
44839;BME280;30576;42.098;24.876;2023-08-31T02:22:08;98949.47;;;23.48;47.84
44839;BME280;30576;42.098;24.876;2023-08-31T02:24:33;98959.59;;;23.45;48.44
44839;BME280;30576;42.098;24.876;2023-08-31T02:26:59;98964.75;;;23.36;48.67
44839;BME280;30576;42.098;24.876;2023-08-31T02:29:24;98956.81;;;23.35;48.91
44839;BME280;30576;42.098;24.876;2023-08-31T02:31:49;98983.94;;;23.43;49.20
44839;BME280;30576;42.098;24.876;2023-08-31T02:34:15;98972.72;;;23.27;49.15
44839;BME280;30576;42.098;24.876;2023-08-31T02:36:40;98978.19;;;23.14;48.74
44839;BME280;30576;42.098;24.876;2023-08-31T02:39:06;98991.91;;;23.22;49.07
44839;BME280;30576;42.098;24.876;2023-08-31T02:41:32;98987.47;;;23.10;49.92
44839;BME280;30576;42.098;24.876;2023-08-31T02:43:57;98991.75;;;23.12;50.66
44839;BME280;30576;42.098;24.876;2023-08-31T02:46:23;98950.47;;;22.89;50.93
44839;BME280;30576;42.098;24.876;2023-08-31T02:48:48;98961.34;;;22.87;51.72
44839;BME280;30576;42.098;24.876;2023-08-31T02:51:14;98978.72;;;22.95;52.19
44839;BME280;30576;42.098;24.876;2023-08-31T02:53:39;98961.09;;;22.79;52.45
44839;BME280;30576;42.098;24.876;2023-08-31T02:56:05;98977.88;;;22.94;53.40
44839;BME280;30576;42.098;24.876;2023-08-31T02:58:30;98996.94;;;22.91;51.95
44839;BME280;30576;42.098;24.876;2023-08-31T03:01:09;98980.94;;;22.89;50.92
44839;BME280;30576;42.098;24.876;2023-08-31T03:03:40;98977.13;;;22.81;49.52
44839;BME280;30576;42.098;24.876;2023-08-31T03:06:09;99002.31;;;22.91;50.18
44839;BME280;30576;42.098;24.876;2023-08-31T03:08:35;99013.44;;;22.98;47.99
44839;BME280;30576;42.098;24.876;2023-08-31T03:11:04;99032.84;;;23.14;49.84
44839;BME280;30576;42.098;24.876;2023-08-31T03:13:33;99038.69;;;23.08;49.73
44839;BME280;30576;42.098;24.876;2023-08-31T03:16:00;99003.78;;;22.95;48.09
44839;BME280;30576;42.098;24.876;2023-08-31T03:18:26;99003.81;;;23.06;47.80
44839;BME280;30576;42.098;24.876;2023-08-31T03:20:51;99009.97;;;23.20;47.02
44839;BME280;30576;42.098;24.876;2023-08-31T03:23:17;99014.16;;;23.35;46.88
44839;BME280;30576;42.098;24.876;2023-08-31T03:25:42;99021.63;;;23.43;47.50
44839;BME280;30576;42.098;24.876;2023-08-31T03:28:14;98998.75;;;23.37;46.19
44839;BME280;30576;42.098;24.876;2023-08-31T03:30:43;98978.44;;;23.22;46.72
44839;BME280;30576;42.098;24.876;2023-08-31T03:33:10;99009.78;;;23.34;46.62
44839;BME280;30576;42.098;24.876;2023-08-31T03:35:36;99034.84;;;23.57;47.18
44839;BME280;30576;42.098;24.876;2023-08-31T03:38:02;99026.66;;;23.59;47.10
44839;BME280;30576;42.098;24.876;2023-08-31T03:40:35;98994.09;;;23.28;47.30
44839;BME280;30576;42.098;24.876;2023-08-31T03:43:00;98985.16;;;23.28;46.33
44839;BME280;30576;42.098;24.876;2023-08-31T03:51:55;99035.72;;;23.47;49.54
44839;BME280;30576;42.098;24.876;2023-08-31T03:54:21;99047.03;;;23.28;49.95
44839;BME280;30576;42.098;24.876;2023-08-31T03:56:46;99043.50;;;23.38;49.77
44839;BME280;30576;42.098;24.876;2023-08-31T03:59:12;99066.22;;;23.23;49.94
44839;BME280;30576;42.098;24.876;2023-08-31T04:01:37;99079.78;;;23.10;50.76
44839;BME280;30576;42.098;24.876;2023-08-31T04:04:03;99078.47;;;23.16;50.81
44839;BME280;30576;42.098;24.876;2023-08-31T04:06:29;99073.94;;;22.92;50.02
44839;BME280;30576;42.098;24.876;2023-08-31T04:08:55;99039.66;;;22.71;49.98
44839;BME280;30576;42.098;24.876;2023-08-31T04:11:20;99074.06;;;22.91;50.59
44839;BME280;30576;42.098;24.876;2023-08-31T04:13:46;99074.50;;;22.84;49.50
44839;BME280;30576;42.098;24.876;2023-08-31T04:16:11;99056.84;;;22.69;49.42
44839;BME280;30576;42.098;24.876;2023-08-31T04:18:36;99060.91;;;22.75;48.98
44839;BME280;30576;42.098;24.876;2023-08-31T04:21:02;99072.75;;;22.72;49.85
44839;BME280;30576;42.098;24.876;2023-08-31T04:23:28;99097.50;;;22.88;49.87
44839;BME280;30576;42.098;24.876;2023-08-31T04:25:54;99107.56;;;22.98;51.03
44839;BME280;30576;42.098;24.876;2023-08-31T04:28:21;99097.44;;;23.01;50.12
44839;BME280;30576;42.098;24.876;2023-08-31T04:30:46;99113.44;;;23.03;51.69
44839;BME280;30576;42.098;24.876;2023-08-31T04:52:27;99042.53;;;22.57;51.41
44839;BME280;30576;42.098;24.876;2023-08-31T04:55:00;99074.16;;;22.89;52.63
44839;BME280;30576;42.098;24.876;2023-08-31T04:57:29;99056.69;;;22.83;51.85
44839;BME280;30576;42.098;24.876;2023-08-31T04:59:55;99119.44;;;23.19;51.92
44839;BME280;30576;42.098;24.876;2023-08-31T05:02:21;99111.72;;;23.26;51.67
44839;BME280;30576;42.098;24.876;2023-08-31T05:04:47;99127.47;;;23.55;50.85
44839;BME280;30576;42.098;24.876;2023-08-31T05:07:13;99107.41;;;23.59;49.47
44839;BME280;30576;42.098;24.876;2023-08-31T05:09:38;99104.84;;;23.69;49.66
44839;BME280;30576;42.098;24.876;2023-08-31T05:12:04;99123.38;;;23.85;49.12
44839;BME280;30576;42.098;24.876;2023-08-31T05:14:30;99142.59;;;24.14;48.25
44839;BME280;30576;42.098;24.876;2023-08-31T05:16:55;99134.03;;;24.31;47.29
44839;BME280;30576;42.098;24.876;2023-08-31T05:19:21;99141.22;;;24.54;47.09
44839;BME280;30576;42.098;24.876;2023-08-31T05:21:47;99150.13;;;24.77;46.59
44839;BME280;30576;42.098;24.876;2023-08-31T05:24:13;99133.53;;;24.93;46.56
44839;BME280;30576;42.098;24.876;2023-08-31T05:26:39;99050.53;;;24.53;46.45
44839;BME280;30576;42.098;24.876;2023-08-31T05:29:05;99056.59;;;24.77;46.20
44839;BME280;30576;42.098;24.876;2023-08-31T05:31:31;99050.81;;;24.82;47.01
44839;BME280;30576;42.098;24.876;2023-08-31T05:33:59;99070.03;;;24.89;46.67
44839;BME280;30576;42.098;24.876;2023-08-31T05:36:27;99062.97;;;25.09;45.68
44839;BME280;30576;42.098;24.876;2023-08-31T05:38:53;99106.03;;;25.52;44.07
44839;BME280;30576;42.098;24.876;2023-08-31T05:41:18;99137.81;;;25.70;43.04
44839;BME280;30576;42.098;24.876;2023-08-31T05:43:44;99140.50;;;25.70;43.84
44839;BME280;30576;42.098;24.876;2023-08-31T05:46:10;99140.22;;;26.15;43.21
44839;BME280;30576;42.098;24.876;2023-08-31T05:48:36;99147.56;;;26.44;42.16
44839;BME280;30576;42.098;24.876;2023-08-31T05:51:02;99131.81;;;26.59;41.47
44839;BME280;30576;42.098;24.876;2023-08-31T05:53:29;99146.38;;;26.77;41.24
44839;BME280;30576;42.098;24.876;2023-08-31T05:55:55;99151.94;;;26.86;40.91
44839;BME280;30576;42.098;24.876;2023-08-31T05:58:31;99148.94;;;26.79;41.78
44839;BME280;30576;42.098;24.876;2023-08-31T06:00:58;99154.53;;;27.16;41.34
44839;BME280;30576;42.098;24.876;2023-08-31T06:03:23;99117.75;;;26.75;39.89
44839;BME280;30576;42.098;24.876;2023-08-31T06:05:49;99140.25;;;27.05;40.23
44839;BME280;30576;42.098;24.876;2023-08-31T06:08:15;99153.41;;;27.39;41.09
44839;BME280;30576;42.098;24.876;2023-08-31T06:10:43;99129.47;;;27.34;40.11
44839;BME280;30576;42.098;24.876;2023-08-31T06:13:10;99145.56;;;27.36;40.56
44839;BME280;30576;42.098;24.876;2023-08-31T06:15:39;99071.75;;;27.14;39.63
44839;BME280;30576;42.098;24.876;2023-08-31T06:18:05;99111.50;;;27.43;38.34
44839;BME280;30576;42.098;24.876;2023-08-31T06:23:06;99171.09;;;28.10;38.09
44839;BME280;30576;42.098;24.876;2023-08-31T06:25:35;99111.19;;;27.56;37.44
44839;BME280;30576;42.098;24.876;2023-08-31T06:28:01;99173.00;;;27.80;37.36
44839;BME280;30576;42.098;24.876;2023-08-31T06:30:30;99125.13;;;27.71;37.30
44839;BME280;30576;42.098;24.876;2023-08-31T06:32:57;99138.56;;;28.10;36.99
44839;BME280;30576;42.098;24.876;2023-08-31T06:35:22;99152.84;;;28.39;36.82
44839;BME280;30576;42.098;24.876;2023-08-31T06:37:49;99096.59;;;28.42;36.05
44839;BME280;30576;42.098;24.876;2023-08-31T06:40:18;99098.00;;;28.73;36.08
44839;BME280;30576;42.098;24.876;2023-08-31T06:42:44;99100.25;;;28.50;35.02
44839;BME280;30576;42.098;24.876;2023-08-31T06:45:10;99095.44;;;28.44;35.00
44839;BME280;30576;42.098;24.876;2023-08-31T06:47:35;99101.44;;;28.20;35.82
44839;BME280;30576;42.098;24.876;2023-08-31T06:50:04;99115.66;;;28.50;35.47
44839;BME280;30576;42.098;24.876;2023-08-31T06:52:30;99148.31;;;29.04;34.81
44839;BME280;30576;42.098;24.876;2023-08-31T06:54:55;99172.22;;;29.18;35.54
44839;BME280;30576;42.098;24.876;2023-08-31T06:57:25;99142.97;;;28.94;34.32
44839;BME280;30576;42.098;24.876;2023-08-31T06:59:50;99085.97;;;28.48;34.95
44839;BME280;30576;42.098;24.876;2023-08-31T07:02:16;99112.31;;;28.84;35.07
44839;BME280;30576;42.098;24.876;2023-08-31T07:04:42;99107.22;;;28.81;34.43
44839;BME280;30576;42.098;24.876;2023-08-31T07:09:36;99157.91;;;29.26;33.52
44839;BME280;30576;42.098;24.876;2023-08-31T07:12:01;99169.16;;;29.75;33.74
44839;BME280;30576;42.098;24.876;2023-08-31T07:14:27;99171.75;;;29.59;33.85
44839;BME280;30576;42.098;24.876;2023-08-31T07:16:53;99176.59;;;29.91;34.00
44839;BME280;30576;42.098;24.876;2023-08-31T07:19:18;99180.47;;;29.89;33.03
44839;BME280;30576;42.098;24.876;2023-08-31T07:21:44;99163.91;;;30.00;33.93
44839;BME280;30576;42.098;24.876;2023-08-31T07:24:09;99152.22;;;30.08;32.06
44839;BME280;30576;42.098;24.876;2023-08-31T07:26:35;99162.31;;;30.24;31.89
44839;BME280;30576;42.098;24.876;2023-08-31T07:29:01;99174.03;;;30.16;33.41
44839;BME280;30576;42.098;24.876;2023-08-31T07:31:30;99166.47;;;30.36;32.88
44839;BME280;30576;42.098;24.876;2023-08-31T07:33:56;99143.88;;;30.35;32.88
44839;BME280;30576;42.098;24.876;2023-08-31T07:36:22;99145.78;;;30.43;32.70
44839;BME280;30576;42.098;24.876;2023-08-31T07:38:47;99175.09;;;30.58;32.33
44839;BME280;30576;42.098;24.876;2023-08-31T07:41:12;99139.75;;;30.31;31.81
44839;BME280;30576;42.098;24.876;2023-08-31T07:43:38;99133.81;;;30.36;31.93
44839;BME280;30576;42.098;24.876;2023-08-31T07:46:03;99157.38;;;30.53;32.16
44839;BME280;30576;42.098;24.876;2023-08-31T07:48:29;99145.34;;;30.64;31.55
44839;BME280;30576;42.098;24.876;2023-08-31T07:50:55;99121.84;;;30.55;32.94
44839;BME280;30576;42.098;24.876;2023-08-31T07:53:20;99131.44;;;30.92;31.86
44839;BME280;30576;42.098;24.876;2023-08-31T07:55:53;99164.19;;;31.00;30.80
44839;BME280;30576;42.098;24.876;2023-08-31T07:58:25;99172.34;;;31.00;31.68
44839;BME280;30576;42.098;24.876;2023-08-31T08:00:55;99167.63;;;31.19;30.75
44839;BME280;30576;42.098;24.876;2023-08-31T08:03:21;99163.19;;;31.42;30.08
44839;BME280;30576;42.098;24.876;2023-08-31T08:05:47;99170.19;;;31.78;30.41
44839;BME280;30576;42.098;24.876;2023-08-31T08:08:12;99115.88;;;31.19;30.82
44839;BME280;30576;42.098;24.876;2023-08-31T08:10:38;99139.50;;;31.18;30.25
44839;BME280;30576;42.098;24.876;2023-08-31T08:13:03;99144.13;;;31.34;31.09
44839;BME280;30576;42.098;24.876;2023-08-31T08:15:30;99148.03;;;31.48;31.05
44839;BME280;30576;42.098;24.876;2023-08-31T08:17:55;99156.38;;;31.47;31.23
44839;BME280;30576;42.098;24.876;2023-08-31T08:20:22;99156.03;;;31.50;30.22
44839;BME280;30576;42.098;24.876;2023-08-31T08:22:48;99125.53;;;31.46;31.08
44839;BME280;30576;42.098;24.876;2023-08-31T08:25:20;99151.72;;;31.88;30.74
44839;BME280;30576;42.098;24.876;2023-08-31T08:27:46;99120.69;;;32.06;29.06
44839;BME280;30576;42.098;24.876;2023-08-31T08:30:12;99137.88;;;32.15;29.30
44839;BME280;30576;42.098;24.876;2023-08-31T08:32:38;99136.97;;;31.66;29.31
44839;BME280;30576;42.098;24.876;2023-08-31T08:35:03;99104.69;;;31.94;29.30
44839;BME280;30576;42.098;24.876;2023-08-31T08:37:29;99142.19;;;31.92;30.04
44839;BME280;30576;42.098;24.876;2023-08-31T08:39:57;99128.28;;;32.27;28.72
44839;BME280;30576;42.098;24.876;2023-08-31T08:42:24;99151.00;;;32.59;30.43
44839;BME280;30576;42.098;24.876;2023-08-31T08:44:50;99139.00;;;32.37;29.08
44839;BME280;30576;42.098;24.876;2023-08-31T08:47:17;99109.13;;;31.95;28.42
44839;BME280;30576;42.098;24.876;2023-08-31T08:49:43;99126.75;;;32.64;29.26
44839;BME280;30576;42.098;24.876;2023-08-31T08:52:12;99108.56;;;32.88;28.64
44839;BME280;30576;42.098;24.876;2023-08-31T08:54:41;99131.22;;;33.19;29.55
44839;BME280;30576;42.098;24.876;2023-08-31T08:57:06;99130.97;;;33.29;27.61
44839;BME280;30576;42.098;24.876;2023-08-31T08:59:32;99138.78;;;33.09;28.07
44839;BME280;30576;42.098;24.876;2023-08-31T09:01:58;99089.47;;;33.02;27.57
44839;BME280;30576;42.098;24.876;2023-08-31T09:04:24;99099.41;;;33.27;25.82
44839;BME280;30576;42.098;24.876;2023-08-31T09:06:50;99123.69;;;33.60;27.05
44839;BME280;30576;42.098;24.876;2023-08-31T09:09:21;99137.69;;;33.80;26.56
44839;BME280;30576;42.098;24.876;2023-08-31T09:11:46;99116.41;;;33.52;28.12
44839;BME280;30576;42.098;24.876;2023-08-31T09:14:16;99130.28;;;33.27;28.30
44839;BME280;30576;42.098;24.876;2023-08-31T09:16:46;99132.09;;;33.20;28.89
44839;BME280;30576;42.098;24.876;2023-08-31T09:19:24;99103.78;;;33.51;27.86
44839;BME280;30576;42.098;24.876;2023-08-31T09:21:51;99123.97;;;33.50;27.12
44839;BME280;30576;42.098;24.876;2023-08-31T09:24:17;99116.13;;;33.47;27.16
44839;BME280;30576;42.098;24.876;2023-08-31T09:29:09;99121.34;;;33.10;25.94
44839;BME280;30576;42.098;24.876;2023-08-31T09:34:33;99118.59;;;33.18;28.55
44839;BME280;30576;42.098;24.876;2023-08-31T09:37:05;99132.16;;;33.04;27.78
44839;BME280;30576;42.098;24.876;2023-08-31T09:39:39;99119.88;;;32.99;29.98
44839;BME280;30576;42.098;24.876;2023-08-31T09:42:05;99130.69;;;33.16;27.51
44839;BME280;30576;42.098;24.876;2023-08-31T09:44:30;99121.66;;;33.15;28.05
44839;BME280;30576;42.098;24.876;2023-08-31T09:46:56;99122.59;;;33.08;28.94
44839;BME280;30576;42.098;24.876;2023-08-31T09:49:22;99110.41;;;33.18;28.90
44839;BME280;30576;42.098;24.876;2023-08-31T09:51:49;99109.69;;;33.40;26.20
44839;BME280;30576;42.098;24.876;2023-08-31T09:54:17;99098.03;;;33.46;26.03
44839;BME280;30576;42.098;24.876;2023-08-31T09:56:43;99132.25;;;33.18;26.92
44839;BME280;30576;42.098;24.876;2023-08-31T09:59:09;99097.75;;;33.17;26.78
44839;BME280;30576;42.098;24.876;2023-08-31T10:01:35;99125.28;;;33.54;26.10
44839;BME280;30576;42.098;24.876;2023-08-31T10:04:02;99121.22;;;33.50;25.62
44839;BME280;30576;42.098;24.876;2023-08-31T10:06:28;99100.31;;;33.19;27.46
44839;BME280;30576;42.098;24.876;2023-08-31T10:09:04;99109.88;;;33.15;25.42
44839;BME280;30576;42.098;24.876;2023-08-31T10:11:32;99108.16;;;33.60;26.12
44839;BME280;30576;42.098;24.876;2023-08-31T10:14:03;99091.63;;;33.53;25.05
44839;BME280;30576;42.098;24.876;2023-08-31T10:16:30;99090.59;;;33.54;25.32
44839;BME280;30576;42.098;24.876;2023-08-31T10:18:56;99115.00;;;33.56;25.53
44839;BME280;30576;42.098;24.876;2023-08-31T10:21:24;99063.16;;;32.87;26.25
44839;BME280;30576;42.098;24.876;2023-08-31T10:23:50;99118.75;;;33.17;26.77
44839;BME280;30576;42.098;24.876;2023-08-31T10:26:31;99104.97;;;33.33;26.64
44839;BME280;30576;42.098;24.876;2023-08-31T10:28:58;99100.94;;;33.44;25.77
44839;BME280;30576;42.098;24.876;2023-08-31T10:31:28;99125.22;;;33.62;25.90
44839;BME280;30576;42.098;24.876;2023-08-31T10:34:04;99130.72;;;33.39;27.10
44839;BME280;30576;42.098;24.876;2023-08-31T10:36:39;99112.66;;;33.53;26.83
44839;BME280;30576;42.098;24.876;2023-08-31T10:39:12;99118.41;;;33.58;25.71
44839;BME280;30576;42.098;24.876;2023-08-31T10:41:39;99122.75;;;33.52;26.16
44839;BME280;30576;42.098;24.876;2023-08-31T10:44:31;99126.69;;;33.50;26.31
44839;BME280;30576;42.098;24.876;2023-08-31T10:47:03;99125.19;;;33.24;28.37
44839;BME280;30576;42.098;24.876;2023-08-31T10:49:31;99116.72;;;33.19;28.55
44839;BME280;30576;42.098;24.876;2023-08-31T10:52:15;99118.88;;;33.24;27.98
44839;BME280;30576;42.098;24.876;2023-08-31T10:54:46;99085.13;;;32.93;27.59
44839;BME280;30576;42.098;24.876;2023-08-31T10:57:12;99131.53;;;32.93;28.31
44839;BME280;30576;42.098;24.876;2023-08-31T10:59:50;99120.56;;;32.78;30.20
44839;BME280;30576;42.098;24.876;2023-08-31T11:05:07;99123.13;;;33.03;28.87
44839;BME280;30576;42.098;24.876;2023-08-31T11:07:33;99117.66;;;32.80;28.83
44839;BME280;30576;42.098;24.876;2023-08-31T11:12:41;99106.56;;;32.42;28.26
44839;BME280;30576;42.098;24.876;2023-08-31T11:15:07;99083.69;;;32.11;29.66
44839;BME280;30576;42.098;24.876;2023-08-31T11:17:33;99091.63;;;32.29;29.63
44839;BME280;30576;42.098;24.876;2023-08-31T11:20:00;99116.41;;;32.51;29.07
44839;BME280;30576;42.098;24.876;2023-08-31T11:22:27;99129.00;;;32.60;29.10
44839;BME280;30576;42.098;24.876;2023-08-31T11:24:52;99111.28;;;32.64;29.71
44839;BME280;30576;42.098;24.876;2023-08-31T11:27:22;99117.84;;;33.01;28.34
44839;BME280;30576;42.098;24.876;2023-08-31T11:29:47;99118.06;;;32.92;28.37
44839;BME280;30576;42.098;24.876;2023-08-31T11:32:13;99104.66;;;32.82;29.18
44839;BME280;30576;42.098;24.876;2023-08-31T11:34:45;99064.66;;;32.35;28.79
44839;BME280;30576;42.098;24.876;2023-08-31T11:37:13;99118.03;;;32.37;30.79
44839;BME280;30576;42.098;24.876;2023-08-31T11:39:51;99119.38;;;32.41;31.04
44839;BME280;30576;42.098;24.876;2023-08-31T11:42:19;99090.34;;;32.09;30.80
44839;BME280;30576;42.098;24.876;2023-08-31T11:44:49;99105.97;;;32.23;30.71
44839;BME280;30576;42.098;24.876;2023-08-31T11:47:16;99126.22;;;32.37;29.80
44839;BME280;30576;42.098;24.876;2023-08-31T11:49:42;99114.03;;;32.48;31.61
44839;BME280;30576;42.098;24.876;2023-08-31T11:52:10;99068.00;;;32.45;29.00
44839;BME280;30576;42.098;24.876;2023-08-31T11:54:37;99120.41;;;33.03;29.09
44839;BME280;30576;42.098;24.876;2023-08-31T11:57:07;99106.78;;;33.18;28.59
44839;BME280;30576;42.098;24.876;2023-08-31T11:59:34;99090.47;;;33.10;29.87
44839;BME280;30576;42.098;24.876;2023-08-31T12:02:01;99101.28;;;33.26;29.43
44839;BME280;30576;42.098;24.876;2023-08-31T12:04:26;99097.25;;;33.37;26.82
44839;BME280;30576;42.098;24.876;2023-08-31T12:06:52;99110.94;;;33.37;27.38
44839;BME280;30576;42.098;24.876;2023-08-31T12:09:21;99113.56;;;33.45;26.58
44839;BME280;30576;42.098;24.876;2023-08-31T12:11:50;99093.88;;;33.50;26.64
44839;BME280;30576;42.098;24.876;2023-08-31T12:14:24;99088.31;;;33.58;27.03
44839;BME280;30576;42.098;24.876;2023-08-31T12:16:50;99077.97;;;33.68;28.00
44839;BME280;30576;42.098;24.876;2023-08-31T12:19:17;99086.59;;;33.80;29.14
44839;BME280;30576;42.098;24.876;2023-08-31T12:21:43;99100.47;;;33.41;27.77
44839;BME280;30576;42.098;24.876;2023-08-31T12:24:10;99100.88;;;33.52;27.89
44839;BME280;30576;42.098;24.876;2023-08-31T12:26:35;99081.34;;;33.41;28.24
44839;BME280;30576;42.098;24.876;2023-08-31T12:29:03;99057.06;;;33.23;28.34
44839;BME280;30576;42.098;24.876;2023-08-31T12:31:30;99101.44;;;33.48;29.22
44839;BME280;30576;42.098;24.876;2023-08-31T12:33:56;99085.91;;;33.25;29.79
44839;BME280;30576;42.098;24.876;2023-08-31T12:36:21;99075.78;;;33.34;27.67
44839;BME280;30576;42.098;24.876;2023-08-31T12:38:47;99087.00;;;33.39;27.53
44839;BME280;30576;42.098;24.876;2023-08-31T12:41:12;99072.63;;;32.99;29.08
44839;BME280;30576;42.098;24.876;2023-08-31T12:43:39;99084.03;;;33.26;28.89
44839;BME280;30576;42.098;24.876;2023-08-31T12:46:04;99069.75;;;33.53;28.91
44839;BME280;30576;42.098;24.876;2023-08-31T12:48:35;99065.69;;;33.72;27.57
44839;BME280;30576;42.098;24.876;2023-08-31T12:51:00;99071.88;;;33.96;27.96
44839;BME280;30576;42.098;24.876;2023-08-31T12:53:29;99039.06;;;34.11;28.56
44839;BME280;30576;42.098;24.876;2023-08-31T12:55:54;99064.97;;;34.30;26.58
44839;BME280;30576;42.098;24.876;2023-08-31T12:58:20;99071.41;;;34.37;26.35
44839;BME280;30576;42.098;24.876;2023-08-31T13:00:48;99035.56;;;33.87;25.77
44839;BME280;30576;42.098;24.876;2023-08-31T13:03:15;99044.41;;;34.19;26.25
44839;BME280;30576;42.098;24.876;2023-08-31T13:05:41;99048.53;;;34.45;25.73
44839;BME280;30576;42.098;24.876;2023-08-31T13:08:07;99027.47;;;34.46;25.51
44839;BME280;30576;42.098;24.876;2023-08-31T13:10:34;99048.47;;;34.60;25.87
44839;BME280;30576;42.098;24.876;2023-08-31T13:13:00;99067.03;;;34.43;25.85
44839;BME280;30576;42.098;24.876;2023-08-31T13:15:25;99044.16;;;33.84;26.53
44839;BME280;30576;42.098;24.876;2023-08-31T13:17:51;99079.63;;;33.78;26.91
44839;BME280;30576;42.098;24.876;2023-08-31T13:20:16;99074.00;;;33.56;26.49
44839;BME280;30576;42.098;24.876;2023-08-31T13:22:42;99081.81;;;33.44;26.62
44839;BME280;30576;42.098;24.876;2023-08-31T13:25:07;99061.03;;;33.20;26.75
44839;BME280;30576;42.098;24.876;2023-08-31T13:27:34;99055.31;;;33.30;26.84
44839;BME280;30576;42.098;24.876;2023-08-31T13:29:59;99053.34;;;33.39;26.78
44839;BME280;30576;42.098;24.876;2023-08-31T13:32:25;99044.31;;;33.53;26.91
44839;BME280;30576;42.098;24.876;2023-08-31T13:34:51;99063.66;;;33.81;27.02
44839;BME280;30576;42.098;24.876;2023-08-31T13:37:18;99011.91;;;33.65;26.66
44839;BME280;30576;42.098;24.876;2023-08-31T13:39:44;99031.31;;;34.00;25.88
44839;BME280;30576;42.098;24.876;2023-08-31T13:42:09;99012.16;;;33.70;26.31
44839;BME280;30576;42.098;24.876;2023-08-31T13:44:35;99050.56;;;33.62;26.35
44839;BME280;30576;42.098;24.876;2023-08-31T13:47:01;99025.97;;;33.77;26.22
44839;BME280;30576;42.098;24.876;2023-08-31T13:49:29;99066.03;;;33.84;26.08